首页,我爱P2P,双语字幕,oaBT.org,magnet,磁力下载站,电驴下载,迅雷下载,小米路由下载,在线观看,电影,美剧,日剧,韩剧,让网络分享更加自由
广告载入中.......
置顶资源 名称 下载 时间 容量 下载次
HR-HDTV电影 The.Zero.Theorem.2013.零点定理.双语字幕.HR-HDTV.AC3.1024X550.x264.mkv【Auto】 磁力下载 22:24 1.6 GB 270
HR-HDTV电影 Mr.Peabody.And.Sherman.2014.天才眼镜狗.双语字幕.HR-HDTV.AC3.1024X576.x264.V2.mkv【Auto】 磁力下载 19:02 1.4 GB 179
HR-HDTV电影 Minuscule.The.Valley.Of.The.Lost.Ants.2013.微观世界.失落的蚂蚁谷.中文字幕.HR-HDTV.AC3.1024X576.x264.mkv【Auto】 磁力下载 09:54 1.4 GB 258
HR-HDTV电影 A.Perfect.World.1993.完美世界.双语字幕.HR-HDTV.AC3.1024X576.x264.mkv【Auto】 磁力下载 19:25 2.1 GB 143
HR-HDTV电影 Toy.Story.Of.Terror.2013.玩具总动员之惊魂夜.双语字幕.HR-HDTV.AC3.1024X576.x264.V2.mkv【Auto】 磁力下载 19:09 337.5 MB 203
HR-HDTV电影 The.Amazing.Spider-Man.2.2014.超凡蜘蛛侠2.双语字幕.国英音轨.HR-HDTV.AC3.1024X576.x264.V2.mkv【Auto】 磁力下载 09:10 2.4 GB 494
HR-HDTV电影 Dvenadzat.2007.12怒汉.中俄双语字幕.HR-HDTV.AC3.1024X576.x264.mkv【Auto】 磁力下载 17:03 2.4 GB 106
HR-HDTV电影 Mea.Culpa.2014.过失.中法双语字幕.HR-HDTV.AC3.1024X576.x264.mkv【Auto】 磁力下载 11:53 1.4 GB 140
HR-HDTV电影 Locke.2013.洛克.双语字幕.HR-HDTV.AC3.1024X576.x264.mkv【Auto】 磁力下载 10:22 1.3 GB 182
HR-HDTV电影 Jack.et.la.mécanique.du.coeur.2014.机械心.中法双语字幕.HR-HDTV.AC3.1024X576.x264.mkv【Auto】 磁力下载 18:48 1.4 GB 290
HR-HDTV电影 Captain.America.The.Winter.Soldier.2014.美国队长2.寒冬战士.双语字幕.国英音轨.HR-HDTV.AC3.1024X576.x264.mkv【Auto】 磁力下载 10:16 2.3 GB 1229
HR-HDTV电影 Quai.d'Orsay.2013.奥赛站台.中法双语字幕.HR-HDTV.AC3.1024X576.x264.mkv【Auto】 磁力下载 20:28 1.7 GB 164
HR-HDTV电影 A.Long.Way.Down.2014.自杀四人组.双语字幕.HR-HDTV.AC3.1024X576.x264.mkv【Auto】 磁力下载 17:47 1.5 GB 258
HR-HDTV电影 Heaven.Is.For.Real.2014.天堂真的存在.双语字幕.HR-HDTV.AC3.1024X576.x264.mkv【Auto】 磁力下载 11:45 1.5 GB 246
HR-HDTV电影 Divergent.2014.分歧者.双语字幕.HR-HDTV.AC3.1024X576.x264.mkv【Auto】 磁力下载 17:36 2.1 GB 505
HR-HDTV电影 Supercondriaque.2014.臆想成病.中法双语字幕.HR-HDTV.AC3.1024X576.x264.mkv【Auto】 磁力下载 18:58 1.6 GB 196
HR-HDTV电影 Need.For.Speed.2014.极品飞车.双语字幕.HR-HDTV.AC3.1024X576.x264.mkv【Auto】 磁力下载 13:44 2.0 GB 988
HR-HDTV电影 Rio.2.2014.里约大冒险2.双语字幕.国英音轨.HR-HDTV.AC3.1024X576.x264.mkv【Auto】 磁力下载 14:36 1.8 GB 692
HR-HDTV电影 La.belle.et.la.bête.2014.美女与野兽.中法双语字幕.HR-HDTV.AC3.1024X576.x264.mkv【Auto】 磁力下载 11:41 1.7 GB 270
HR-HDTV电影 Noah.2014.诺亚方舟.创世之旅.双语字幕.HR-HDTV.AC3.1024X556.x264.mkv【Auto】 磁力下载 18:00 2.1 GB 574
最新发布 名称 下载 时间 容量 下载次
2014年08月23日 (星期六)
美剧 我爱上的人是奇葩.You’re.The.Worst.S01E06.中英字幕.HDTVrip.1024X576.mkv【Auto】 磁力下载 00:11 253.1 MB 13
美剧 我爱上的人是奇葩.You’re.The.Worst.S01E06.中英字幕.HDTVrip.624X352.mp4【Auto】 磁力下载 00:02 103.6 MB 13
2014年08月22日 (星期五)
美剧 昭雪.Rectify.S02E10.End.中英字幕.HDTVrip.1024X576.mkv【Auto】 磁力下载 22:43 621.9 MB 21
美剧 已婚.Married.S01E06.中英字幕.HDTVrip.1024X576.mkv【Auto】 磁力下载 21:41 227.1 MB 15
美剧 已婚.Married.S01E06.中英字幕.HDTVrip.624X352.mp4【Auto】 磁力下载 21:41 92.9 MB 11
美剧 已婚.Married.S01E05.中英字幕.WEB-HR.AC3.1024X576.x264.mkv【Auto】 磁力下载 21:40 235.3 MB 4
美剧 已婚.Married.S01E05.中英字幕.WEBrip.720X400.mp4【Auto】 磁力下载 21:40 118.7 MB 3
美剧 昭雪.Rectify.S02E10.End.中英字幕.HDTVrip.624X352.mp4【Auto】 磁力下载 21:18 313.5 MB 16
日剧 零之真实~监查医·松本真央~.Zero.no.Shinjitsu.Kansatsui.Matsumoto.Mao.Ep06.Chi_Jap.HDTVrip.1024X576-YYeTs人人影视.mkv【Auto】 磁力下载 21:15 498.3 MB 73
美剧 贱精姐弟.Siblings.S01E03.中英字幕.HDTVrip.1024X576.mkv【Auto】 磁力下载 20:47 269.4 MB 20
美剧 贱精姐弟.Siblings.S01E03.中英字幕.HDTVrip.624X352.mp4【Auto】 磁力下载 20:25 134.8 MB 23
日剧 零之真实~监查医·松本真央~.Zero.no.Shinjitsu.Kansatsui.Matsumoto.Mao.Ep06.Chi_Jap.HDTVrip.704X396-YYeTs人人影视.rmvb【Auto】 磁力下载 20:17 204.6 MB 97
美剧 满足.Satisfaction.US.S01E06.中英字幕.HDTVrip.1024X576.mkv【Auto】 磁力下载 20:13 485.0 MB 29
美剧 满足.Satisfaction.US.S01E06.中英字幕.HDTVrip.624X352.mp4【Auto】 磁力下载 19:43 201.0 MB 19
美剧 燃情克利夫兰.Hot.In.Cleveland.S05E21.中英字幕.WEB-HR.AC3.1024X576.x264.mkv【Auto】 磁力下载 19:30 206.0 MB 4
美剧 老大哥.Big.Brother.US.S16E26.中文字幕.HDTVrip.AC3.1024X576.x264.mkv【Auto】 磁力下载 19:13 487.5 MB 13
美剧 燃情克利夫兰.Hot.In.Cleveland.S05E21.中英字幕.WEBrip.720X400.mp4【Auto】 磁力下载 19:03 121.5 MB 4
美剧 燃情克利夫兰.Hot.In.Cleveland.S05E19.中英字幕.WEB-HR.AC3.1024X576.x264.mkv【Auto】 磁力下载 18:49 206.2 MB 2
美剧 燃情克利夫兰.Hot.In.Cleveland.S05E19.中英字幕.WEBrip.720X400.mp4【Auto】 磁力下载 18:27 121.5 MB 2
美剧 抗争之城.Defiance.S02E11.中英字幕.HDTVrip.1024X576.mkv【Auto】 磁力下载 18:16 472.2 MB 18
美剧 老大哥.Big.Brother.US.S16E26.中文字幕.HDTVrip.624X352.mp4【Auto】 磁力下载 18:11 246.6 MB 12
美剧 圣域.Dominion.S01E05.中英字幕.WEB-HR.1024X576.mkv【Auto】 磁力下载 18:10 488.1 MB 12
美剧 圣域.Dominion.S01E08.中英字幕.WEB-HR.1024X576.mkv【Auto】 磁力下载 18:08 708.8 MB 11
美剧 圣域.Dominion.S01E08.中英字幕.WEBrip.720X400.mp4【Auto】 磁力下载 18:05 349.5 MB 10
美剧 圣域.Dominion.S01E06.中英字幕.WEB-HR.1024X576.mkv【Auto】 磁力下载 18:00 488.0 MB 13
美剧 圣域.Dominion.S01E07.中英字幕.WEBrip.720X400.mp4【Auto】 磁力下载 18:00 212.1 MB 5
美剧 圣域.Dominion.S01E07.中英字幕.WEB-HR.1024X576.mkv【Auto】 磁力下载 17:59 477.8 MB 8
美剧 圣域.Dominion.S01E06.中英字幕.WEBrip.720X400.mp4【Auto】 磁力下载 17:56 241.3 MB 4
美剧 圣域.Dominion.S01E05.中英字幕.WEBrip.720X400.mp4【Auto】 磁力下载 17:56 240.5 MB 5
日剧 昼颜~工作日下午3点的恋人们.Hirugao.Heijitsu.Gogo.3.Ji.no.Koibitotachi.Ep06.Chi_Jap.HDTVrip.1024X576-YYeTs人人影视.mkv【Auto】 磁力下载 17:15 498.6 MB 89
美剧 抗争之城.Defiance.S02E11.中英字幕.HDTVrip.624X352.mp4【Auto】 磁力下载 16:32 238.1 MB 21
美剧 抗争之城.Defiance.S02E10.中英字幕.HDTVrip.1024X576.mkv【Auto】 磁力下载 16:29 483.2 MB 19
日剧 昼颜~工作日下午3点的恋人们.Hirugao.Heijitsu.Gogo.3.Ji.no.Koibitotachi.Ep06.Chi_Jap.HDTVrip.704X396-YYeTs人人影视.rmvb【Auto】 磁力下载 16:23 204.8 MB 70
美剧 抗争之城.Defiance.S02E10.中英字幕.HDTVrip.624X352.mp4【Auto】 磁力下载 15:27 243.7 MB 17
美剧 小律师大作为.Franklin.and.Bash.S04E02.中英字幕.HDTVrip.624X352.mp4【Auto】 磁力下载 14:38 193.4 MB 26
美剧 小律师大作为.Franklin.and.Bash.S04E02.中英字幕.HDTVrip.1024X576.mkv【Auto】 磁力下载 14:35 472.1 MB 24
韩剧 [韩语中字][没关系是爱情啊][E10.140821][HDTV-MP4][YYeTs_Hjjl].mp4【Auto】 磁力下载 13:26 275.7 MB 20
韩剧 [韩语中字][没关系是爱情啊][E10.140821][HR-HDTV][YYeTs_Hjjl].mkv【Auto】 磁力下载 13:25 851.0 MB 39
韩剧 [韩语中字][没关系是爱情啊][E10.140821][[HDTV-RMVB][YYeTs_Hjjl].rmvb【Auto】 磁力下载 13:21 260.0 MB 13
美剧 潜龙谍影.Legends.2014.S01E02.中英字幕.HDTVrip.1024X576.mkv【Auto】 磁力下载 13:16 476.2 MB 92
日剧 Tokyo.Scarlet.Keishichou.NS.Kakari.E06.720p.HDTV.x264.AAC-YYeTs.mkv【Auto】 磁力下载 13:05 1.1 GB 15
美剧 潜龙谍影.Legends.2014.S01E02.中英字幕.HDTVrip.624X352.mp4【Auto】 磁力下载 12:56 233.7 MB 52
日剧 Dousousei.Hito.ha.Sando.Koi.o.Suru.E07.720p.HDTV.x264.AAC-YYeTs.mkv【Auto】 磁力下载 12:35 1.1 GB 6
美剧 真爱如血.True.Blood.S07E09.中英字幕.WEB-HR.AC3.1024X576.x264.mkv【Auto】 磁力下载 12:25 642.8 MB 17
美剧 真爱如血.True.Blood.S07E09.中英字幕.WEBrip.720X400.mp4【Auto】 磁力下载 12:21 324.8 MB 8
HR-HDTV电影 Side.By.Side.2012.阴阳相成.双语字幕.HR-HDTV.AC3.1024X576.x264.mkv【Auto】 磁力下载 12:08 1.5 GB 35
美剧 谍影巾帼.The.Honourable.Woman.S01E08.中英字幕.HDTVrip.624X352.mp4【Auto】 磁力下载 12:01 271.9 MB 23
MP4电影 阴阳相成.Side.By.Side.2012.BD-MP4.mp4【Auto】 磁力下载 11:59 566.0 MB 24
美剧 谍影巾帼.The.Honourable.Woman.S01E08.中英字幕.HDTVrip.1024X576.mkv【Auto】 磁力下载 11:58 583.1 MB 32
美剧 传世.Extant.S01E07E08.中英字幕.HDTVrip.1024X576.mkv【Auto】 磁力下载 09:26 929.1 MB 60
美剧 血族.The.Strain.S01E06.中英字幕.WEB-HR.AC3.1024X576.x264.mkv【Auto】 磁力下载 08:17 493.0 MB 27
美剧 血族.The.Strain.S01E06.中英字幕.WEBrip.720X400.mp4【Auto】 磁力下载 07:22 296.4 MB 17
美剧 血族.The.Strain.S01E05.中英字幕.WEB-HR.AC3.1024X576.x264.mkv【Auto】 磁力下载 07:09 495.0 MB 21
美剧 血族.The.Strain.S01E05.中英字幕.WEBrip.720X400.mp4【Auto】 磁力下载 00:43 297.4 MB 21
美剧 燃情克利夫兰.Hot.In.Cleveland.S05E21.中英字幕.HDTVrip.1024X576.mkv【Auto】 磁力下载 00:22 233.6 MB 9
美剧 燃情克利夫兰.Hot.In.Cleveland.S05E21.中英字幕.HDTVrip.624X352.mp4【Auto】 磁力下载 00:10 122.7 MB 7
2014年08月21日 (星期四)
美剧 传世.Extant.S01E07E08.中英字幕.HDTVrip.624X352.mp4【Auto】 磁力下载 23:32 460.4 MB 81
日剧 年轻人们2014.Wakamonotachi.2014.Ep06.Chi_Jap.HDTVrip.1024X576-YYeTs人人影视.mkv【Auto】 磁力下载 23:25 598.1 MB 103
美剧 春心荡漾.Mistresses.S02E11.中英字幕.WEBrip.720X400.mp4【Auto】 磁力下载 23:07 245.5 MB 8
美剧 春心荡漾.Mistresses.S02E11.中英字幕.WEB-HR.AC3.1024X576.x264.mkv【Auto】 磁力下载 22:59 484.9 MB 26
美剧 疯狂的士.Taxi.Brooklyn.S01E09.中英字幕.HDTVrip.1024X576.mkv【Auto】 磁力下载 22:58 477.9 MB 31
美剧 疯狂的士.Taxi.Brooklyn.S01E09.中英字幕.HDTVrip.624X352.mp4【Auto】 磁力下载 22:57 195.6 MB 31
日剧 年轻人们2014.Wakamonotachi.2014.Ep06.Chi_Jap.HDTVrip.704X396-YYeTs人人影视.rmvb【Auto】 磁力下载 22:18 251.6 MB 96
美剧 疯狂的士.Taxi.Brooklyn.S01E08.中英字幕.HDTVrip.720x400.mp4【Auto】 磁力下载 21:45 242.4 MB 15
美剧 疯狂的士.Taxi.Brooklyn.S01E08.中英字幕.HR-HDTV.AAC.1024x576.x264.mkv【Auto】 磁力下载 21:45 480.7 MB 24
美剧 老大哥.Big.Brother.US.S16E25.中文字幕.HDTVrip.AC3.1024X576.x264.mkv【Auto】 磁力下载 20:40 486.4 MB 19
美剧 边桥谜案.The.Bridge.S02E07.中英字幕.HDTVrip.1024X576.mkv【Auto】 磁力下载 20:30 482.8 MB 39
HR-HDTV电影 Twin.Dragons.1992.双龙会.中文字幕.国粤音轨.HR-HDTV.AC3.1024X576.x264.mkv【Auto】 磁力下载 20:28 1.7 GB 34
HR-HDTV电影 Kawashima.Yoshiko.1990.川岛芳子.中文字幕.国粤音轨.HR-HDTV.AC3.1024X576.x264.mkv【Auto】 磁力下载 20:12 2.0 GB 28
HR-HDTV电影 O.Homem.do.Futuro.2011.未来之人.中文字幕.HR-HDTV.AC3.1024X576.x264.mkv【Auto】 磁力下载 19:55 1.6 GB 37
HR-HDTV电影 Scoop.2006.独家新闻.双语字幕.HR-HDTV.AC3.1024X576.x264.mkv【Auto】 磁力下载 19:42 1.5 GB 37
美剧 诉讼双雄.Suits.S04E10.中英字幕.HR-HDTV.AC3.1024X576.x264.End.mkv【Auto】 磁力下载 19:34 492.6 MB 78
美剧 诉讼双雄.Suits.S04E10.中英字幕.HDTVrip.720X400.End.mp4【Auto】 磁力下载 19:30 249.9 MB 97
MP4电影 未来之人.O.Homem.do.Futuro.2011.BD-MP4.mp4【Auto】 磁力下载 19:29 603.8 MB 18
HR-HDTV电影 Rescue.Dawn.2006.重见天日.双语字幕.HR-HDTV.AC3.1024X556.x264.mkv【Auto】 磁力下载 19:28 1.9 GB 24
美剧 边桥谜案.The.Bridge.S02E07.中英字幕.HDTVrip.624x352.mp4【Auto】 磁力下载 19:25 277.9 MB 24
MP4电影 重见天日.Rescue.Dawn.2006.BD-MP4.mp4【Auto】 磁力下载 19:24 716.5 MB 19
美剧 老大哥.Big.Brother.US.S16E25.中文字幕.HDTVrip.624X352.mp4【Auto】 磁力下载 19:22 245.3 MB 13
MP4电影 独家新闻.Scoop.2006.BD-MP4.mp4【Auto】 磁力下载 19:18 546.2 MB 17
纪录片 战地摄影师.Shooting.War.2000.中英字幕.DVDRip.480x360.mp4【Auto】 磁力下载 18:28 504.2 MB 26
美剧 恩赐之地.Graceland.S02E10.中英字幕.HDTVrip.1024X576.mkv【Auto】 磁力下载 18:10 419.1 MB 35
美剧 恩赐之地.Graceland.S02E10.中英字幕.HDTVrip.624X352.mp4【Auto】 磁力下载 17:46 196.5 MB 27
美剧 特效化妆师大对决.Face.Off.S07E05.中文字幕.HR-HDTV.AC3.1024X576.x264.mkv【Auto】 磁力下载 17:46 487.4 MB 12
美剧 特效化妆师大对决.Face.Off.S07E05.中文字幕.HDTVrip.720X400.mp4【Auto】 磁力下载 16:07 245.8 MB 18
美剧 饥饿的青春.Young.and.Hungry.S01E09.中英字幕.HDTVrip.1024X576.mkv【Auto】 磁力下载 14:15 225.2 MB 23
美剧 饥饿的青春.Young.and.Hungry.S01E09.中英字幕.HDTVrip.720X400.mp4【Auto】 磁力下载 14:14 113.5 MB 24
韩剧 [韩语中字][没关系是爱情啊][E09.140820][HDTV-MP4][YYeTs_Hjjl].mp4【Auto】 磁力下载 13:46 275.7 MB 30
韩剧 [韩语中字][没关系是爱情啊][E09.140820][HR-HDTV][YYeTs_Hjjl].mkv【Auto】 磁力下载 13:39 846.7 MB 53
韩剧 [韩语中字][没关系是爱情啊][E09.140820][[HDTV-RMVB][YYeTs_Hjjl].rmvb【Auto】 磁力下载 13:35 259.8 MB 16
美剧 妙女神探.Rizzoli.and.Isles.S05E10.中英字幕.HR-HDTV.AC3.1024X576.x264.mkv【Auto】 磁力下载 12:37 492.0 MB 48
美剧 妙女神探.Rizzoli.and.Isles.S05E10.中英字幕.HDTVrip.720X400.mp4【Auto】 磁力下载 12:29 238.5 MB 44
美剧 饥饿的青春.Young.and.Hungry.S01E08.中英字幕.WEB-HR.AAC.1024X576.x264.mkv【Auto】 磁力下载 12:12 250.6 MB 18
美剧 饥饿的青春.Young.and.Hungry.S01E08.中英字幕.WEBrip.720X400.mp4【Auto】 磁力下载 11:44 126.4 MB 7
美剧 重案组.Major.Crimes.S03E10.中英字幕.HR-HDTV.AC3.1024X576.x264.mkv【Auto】 磁力下载 11:21 527.3 MB 28
美剧 重案组.Major.Crimes.S03E10.中英字幕.HDTVrip.720X400.mp4【Auto】 磁力下载 11:20 241.0 MB 19
美剧 重案组.Major.Crimes.S03E09.中英字幕.HR-HDTV.AC3.1024X576.x264.mkv【Auto】 磁力下载 11:20 523.5 MB 12
美剧 重案组.Major.Crimes.S03E09.中英字幕.HDTVrip.720X400.mp4【Auto】 磁力下载 11:19 239.2 MB 6
美剧 重案组.Major.Crimes.S03E08.中英字幕.HR-HDTV.AC3.1024X576.x264.mkv【Auto】 磁力下载 11:19 527.5 MB 12
美剧 重案组.Major.Crimes.S03E08.中英字幕.HDTVrip.720X400.mp4【Auto】 磁力下载 11:18 241.1 MB 3
美剧 罪案第六感.Perception.S03E05.中英字幕.WEBrip.720X400.mp4【Auto】 磁力下载 09:31 240.7 MB 7
广告载入中.......